Time;durP1;ratioP1;P1;durP2;ratioP2;P2;SDS_P1;SDS_P2;PMS_P1;PMS_P2;Temp;Humidity;BMP_temperature;BMP_pressure;BME280_temperature;BME280_humidity;BME280_pressure;Samples;Min_cycle;Max_cycle;Signal;HPM_P1;HPM_P2
2022/09/18 00:01:10;;;;;;;15.32;3.65;;;;;;;;;;5065650;28;20025;-79
2022/09/18 00:06:14;;;;;;;9.15;3.50;;;;;;;;;;5955651;23;20065;-78
2022/09/18 00:08:42;;;;;;;7.10;3.00;;;;;;;;;;4968835;28;20116;-81
2022/09/18 00:11:10;;;;;;;8.02;3.40;;;;;;;;;;4972264;28;20033;-79
2022/09/18 00:13:37;;;;;;;7.25;3.58;;;;;;;;;;4972031;28;20113;-83
2022/09/18 00:16:03;;;;;;;6.88;2.90;;;;;;;;;;4972214;28;20075;-81
2022/09/18 00:18:29;;;;;;;6.63;3.15;;;;;;;;;;4972112;28;20038;-77
2022/09/18 00:20:54;;;;;;;6.88;2.78;;;;;;;;;;4972196;28;20027;-82
2022/09/18 00:23:20;;;;;;;6.18;3.00;;;;;;;;;;4972339;28;20114;-81
2022/09/18 00:25:45;;;;;;;8.30;3.10;;;;;;;;;;4972072;28;20023;-79
2022/09/18 00:28:10;;;;;;;6.70;2.80;;;;;;;;;;4972071;28;20514;-79
2022/09/18 00:30:36;;;;;;;6.53;2.72;;;;;;;;;;4972100;28;20022;-79
2022/09/18 00:33:03;;;;;;;5.43;2.83;;;;;;;;;;4972154;28;20114;-79
2022/09/18 00:35:29;;;;;;;7.32;2.65;;;;;;;;;;4972748;28;20034;-86
2022/09/18 00:37:54;;;;;;;5.05;2.70;;;;;;;;;;4974708;28;20041;-78
2022/09/18 00:40:19;;;;;;;6.80;3.13;;;;;;;;;;4975029;28;20101;-79
2022/09/18 00:42:45;;;;;;;5.15;2.90;;;;;;;;;;4976192;28;20061;-85
2022/09/18 00:45:11;;;;;;;9.23;2.90;;;;;;;;;;4980512;28;20031;-76
2022/09/18 00:47:49;;;;;;;6.90;2.78;;;;;;;;;;4972769;28;20030;-85
2022/09/18 00:50:32;;;;;;;6.95;2.83;;;;;;;;;;4977037;28;20081;-82
2022/09/18 00:53:01;;;;;;;5.25;2.80;;;;;;;;;;4971331;28;20058;-82
2022/09/18 00:55:30;;;;;;;5.18;2.50;;;;;;;;;;4968173;28;20192;-81
2022/09/18 00:57:59;;;;;;;8.65;3.08;;;;;;;;;;4968719;28;20031;-80
2022/09/18 01:00:25;;;;;;;7.90;3.20;;;;;;;;;;4969019;28;20034;-80
2022/09/18 01:02:50;;;;;;;6.15;2.70;;;;;;;;;;4968792;28;20043;-77
2022/09/18 01:05:39;;;;;;;7.85;3.17;;;;;;;;;;4966509;28;20459;-83
2022/09/18 01:08:06;;;;;;;8.02;2.70;;;;;;;;;;4966223;28;20242;-81
2022/09/18 01:11:10;;;;;;;5.97;2.83;;;;;;;;;;4970253;28;20038;-79
2022/09/18 01:14:20;;;;;;;6.22;2.55;;;;;;;;;;4922706;29;20035;-80
2022/09/18 01:16:56;;;;;;;5.88;2.65;;;;;;;;;;4887456;29;20036;-82
2022/09/18 01:19:30;;;;;;;7.07;3.00;;;;;;;;;;4960495;28;20172;-80
2022/09/18 01:21:58;;;;;;;5.88;2.83;;;;;;;;;;4968715;28;20035;-80
2022/09/18 01:24:44;;;;;;;10.25;2.85;;;;;;;;;;4971364;28;20031;-82
2022/09/18 01:27:11;;;;;;;;;;;;;;;;;;4967008;28;20195;-79
2022/09/18 01:30:04;;;;;;;5.05;2.50;;;;;;;;;;4966203;28;20208;-86
2022/09/18 01:32:45;;;;;;;7.65;2.95;;;;;;;;;;4968032;28;20334;-81
2022/09/18 01:35:19;;;;;;;5.85;2.70;;;;;;;;;;4966816;28;20319;-80
2022/09/18 01:37:45;;;;;;;5.43;2.90;;;;;;;;;;4966060;28;20092;-77
2022/09/18 01:40:22;;;;;;;6.18;2.80;;;;;;;;;;4967383;28;20039;-78
2022/09/18 01:42:49;;;;;;;7.53;2.72;;;;;;;;;;4970082;28;20034;-81
2022/09/18 01:45:20;;;;;;;8.23;2.75;;;;;;;;;;4969668;28;20027;-83
2022/09/18 01:47:59;;;;;;;6.53;2.60;;;;;;;;;;4973693;28;20073;-78
2022/09/18 01:50:29;;;;;;;6.57;2.40;;;;;;;;;;4974359;28;20120;-86
2022/09/18 01:53:18;;;;;;;8.00;2.72;;;;;;;;;;4971555;28;20082;-80
2022/09/18 01:55:52;;;;;;;4.93;2.40;;;;;;;;;;4960569;28;20037;-85
2022/09/18 01:58:21;;;;;;;6.75;2.65;;;;;;;;;;4971913;28;20031;-82
2022/09/18 02:00:54;;;;;;;5.63;2.33;;;;;;;;;;4976649;28;20030;-79
2022/09/18 02:03:23;;;;;;;6.18;2.70;;;;;;;;;;4971387;28;20122;-81
2022/09/18 02:05:54;;;;;;;5.65;2.38;;;;;;;;;;4974115;28;20211;-79
2022/09/18 02:08:21;;;;;;;6.20;2.30;;;;;;;;;;4977977;28;20229;-79
2022/09/18 02:11:08;;;;;;;4.63;2.45;;;;;;;;;;4980445;28;20030;-76
2022/09/18 02:13:54;;;;;;;5.80;2.10;;;;;;;;;;4981649;28;20023;-76
2022/09/18 02:16:29;;;;;;;7.53;2.30;;;;;;;;;;4974337;28;20031;-86
2022/09/18 02:18:55;;;;;;;;;;;;;;;;;;4982145;28;20027;-81
2022/09/18 02:21:26;;;;;;;4.68;2.30;;;;;;;;;;4980250;28;19950;-80
2022/09/18 02:23:59;;;;;;;5.88;2.30;;;;;;;;;;4977590;28;20030;-78
2022/09/18 02:26:25;;;;;;;8.45;2.78;;;;;;;;;;4982965;28;20038;-79
2022/09/18 02:28:52;;;;;;;4.32;2.42;;;;;;;;;;4984851;28;20257;-83
2022/09/18 02:31:17;;;;;;;6.03;2.38;;;;;;;;;;4985213;28;20360;-78
2022/09/18 02:33:43;;;;;;;10.60;2.40;;;;;;;;;;4981553;28;20031;-78
2022/09/18 02:36:18;;;;;;;4.47;2.20;;;;;;;;;;4984918;28;20031;-77
2022/09/18 02:39:13;;;;;;;6.93;2.28;;;;;;;;;;4984539;28;20022;-76
2022/09/18 02:42:08;;;;;;;6.72;2.63;;;;;;;;;;4984528;28;20037;-76
2022/09/18 02:45:12;;;;;;;5.13;2.17;;;;;;;;;;4981227;28;20046;-78
2022/09/18 02:47:58;;;;;;;4.20;2.03;;;;;;;;;;4939162;29;20036;-78
2022/09/18 02:50:57;;;;;;;4.20;2.30;;;;;;;;;;4981975;28;20215;-76
2022/09/18 02:53:33;;;;;;;4.18;2.00;;;;;;;;;;4980002;28;20077;-78
2022/09/18 02:56:05;;;;;;;4.20;2.15;;;;;;;;;;4984871;28;20038;-77
2022/09/18 02:58:52;;;;;;;4.95;2.20;;;;;;;;;;4978652;28;20064;-76
2022/09/18 03:01:20;;;;;;;5.22;1.95;;;;;;;;;;4975269;28;20035;-76
2022/09/18 03:03:46;;;;;;;4.57;2.30;;;;;;;;;;4968646;28;20033;-80
2022/09/18 03:06:12;;;;;;;4.90;2.00;;;;;;;;;;4971415;28;20035;-77
2022/09/18 03:08:38;;;;;;;4.70;2.10;;;;;;;;;;4970538;28;20023;-82
2022/09/18 03:11:04;;;;;;;4.22;2.30;;;;;;;;;;4972695;28;20263;-81
2022/09/18 03:13:29;;;;;;;6.97;2.20;;;;;;;;;;4971075;28;20086;-79
2022/09/18 03:15:55;;;;;;;4.30;2.15;;;;;;;;;;4971647;28;20027;-79
2022/09/18 03:18:21;;;;;;;4.38;2.10;;;;;;;;;;4969429;28;20094;-81
2022/09/18 03:20:46;;;;;;;4.80;1.95;;;;;;;;;;4971827;28;20023;-76
2022/09/18 03:23:11;;;;;;;3.65;2.00;;;;;;;;;;4969719;28;20035;-82
2022/09/18 03:25:37;;;;;;;5.50;2.30;;;;;;;;;;4971801;28;20069;-85
2022/09/18 03:28:02;;;;;;;6.57;2.05;;;;;;;;;;4980457;28;20225;-86
2022/09/18 03:30:28;;;;;;;5.20;2.40;;;;;;;;;;4968052;28;20034;-85
2022/09/18 03:32:53;;;;;;;5.00;2.00;;;;;;;;;;4970647;28;20031;-85
2022/09/18 03:35:19;;;;;;;5.13;2.25;;;;;;;;;;4970519;28;20108;-84
2022/09/18 03:37:44;;;;;;;4.72;2.17;;;;;;;;;;4974114;28;20031;-76
2022/09/18 03:40:10;;;;;;;5.10;2.20;;;;;;;;;;4978018;28;20039;-79
2022/09/18 03:42:36;;;;;;;4.63;2.03;;;;;;;;;;4980970;28;20029;-79
2022/09/18 03:45:02;;;;;;;3.97;2.05;;;;;;;;;;4970626;28;20027;-83
2022/09/18 03:47:27;;;;;;;5.22;2.20;;;;;;;;;;4982640;28;20351;-81
2022/09/18 03:49:53;;;;;;;5.43;1.90;;;;;;;;;;4982490;28;20316;-84
2022/09/18 03:52:18;;;;;;;5.28;1.85;;;;;;;;;;4976852;28;20671;-84
2022/09/18 03:54:43;;;;;;;4.90;2.10;;;;;;;;;;4978673;28;20029;-79
2022/09/18 03:57:09;;;;;;;5.82;2.10;;;;;;;;;;4983423;28;20090;-81
2022/09/18 03:59:34;;;;;;;4.90;2.05;;;;;;;;;;4982437;28;20018;-83
2022/09/18 04:01:59;;;;;;;4.57;2.20;;;;;;;;;;4983314;28;20086;-78
2022/09/18 04:04:28;;;;;;;5.13;2.17;;;;;;;;;;4982713;28;20069;-84
2022/09/18 04:06:53;;;;;;;5.13;1.98;;;;;;;;;;4982699;28;20047;-80
2022/09/18 04:09:19;;;;;;;4.60;1.90;;;;;;;;;;4982064;28;20085;-79
2022/09/18 04:11:44;;;;;;;4.35;2.10;;;;;;;;;;4981837;28;20027;-81
2022/09/18 04:14:10;;;;;;;4.35;2.08;;;;;;;;;;4981028;28;20037;-85
2022/09/18 04:16:36;;;;;;;4.30;2.10;;;;;;;;;;4981307;28;20046;-84
2022/09/18 04:19:01;;;;;;;4.43;2.10;;;;;;;;;;4983106;28;20070;-79
2022/09/18 04:21:26;;;;;;;5.38;2.20;;;;;;;;;;4983051;28;20033;-79
2022/09/18 04:23:52;;;;;;;4.85;2.30;;;;;;;;;;4982757;28;20332;-80
2022/09/18 04:26:17;;;;;;;4.97;2.05;;;;;;;;;;4983504;28;20230;-80
2022/09/18 04:28:42;;;;;;;3.97;1.77;;;;;;;;;;4982917;28;20089;-77
2022/09/18 04:31:08;;;;;;;5.90;2.25;;;;;;;;;;4982556;28;20089;-78
2022/09/18 04:33:33;;;;;;;4.43;2.03;;;;;;;;;;4982169;28;20110;-77
2022/09/18 04:35:58;;;;;;;5.45;2.00;;;;;;;;;;4981871;28;20054;-77
2022/09/18 04:38:27;;;;;;;3.80;1.88;;;;;;;;;;4981840;28;20411;-80
2022/09/18 04:40:54;;;;;;;6.55;1.90;;;;;;;;;;4982260;28;20025;-82
2022/09/18 04:43:19;;;;;;;4.22;2.13;;;;;;;;;;4981003;28;20026;-80
2022/09/18 04:45:46;;;;;;;4.82;1.90;;;;;;;;;;4981205;28;20330;-85
2022/09/18 04:48:12;;;;;;;4.93;2.10;;;;;;;;;;4980568;28;20039;-82
2022/09/18 04:50:37;;;;;;;7.50;2.13;;;;;;;;;;4980301;28;20051;-86
2022/09/18 04:53:02;;;;;;;23.40;5.80;;;;;;;;;;4981945;28;20065;-81
2022/09/18 04:55:28;;;;;;;13.18;3.80;;;;;;;;;;4982502;28;20338;-81
2022/09/18 04:57:53;;;;;;;8.13;2.72;;;;;;;;;;4982546;28;20026;-83
2022/09/18 05:00:19;;;;;;;8.13;2.50;;;;;;;;;;4978913;28;20101;-79
2022/09/18 05:02:44;;;;;;;5.72;2.22;;;;;;;;;;4981062;28;20054;-80
2022/09/18 05:05:09;;;;;;;6.78;2.70;;;;;;;;;;4976196;28;20062;-79
2022/09/18 05:07:35;;;;;;;5.53;2.33;;;;;;;;;;4981498;28;20069;-83
2022/09/18 05:10:00;;;;;;;5.53;2.17;;;;;;;;;;4980970;28;20474;-78
2022/09/18 05:12:26;;;;;;;4.43;2.15;;;;;;;;;;4980756;28;20349;-85
2022/09/18 05:14:51;;;;;;;3.92;1.80;;;;;;;;;;4980520;28;20022;-83
2022/09/18 05:17:16;;;;;;;5.18;1.98;;;;;;;;;;4980659;28;20034;-80
2022/09/18 05:19:42;;;;;;;5.50;2.10;;;;;;;;;;4974207;28;20033;-86
2022/09/18 05:22:07;;;;;;;7.45;2.30;;;;;;;;;;4979441;28;20042;-81
2022/09/18 05:24:32;;;;;;;6.85;2.00;;;;;;;;;;4981327;28;20038;-80
2022/09/18 05:26:58;;;;;;;5.15;2.10;;;;;;;;;;4979148;28;20097;-80
2022/09/18 05:29:23;;;;;;;5.55;2.35;;;;;;;;;;4981886;28;20022;-87
2022/09/18 05:31:49;;;;;;;4.65;2.00;;;;;;;;;;4979736;28;20026;-79
2022/09/18 05:34:14;;;;;;;6.13;2.83;;;;;;;;;;4980679;28;20058;-80
2022/09/18 05:36:39;;;;;;;4.55;2.10;;;;;;;;;;4981875;28;20023;-81
2022/09/18 05:39:05;;;;;;;3.85;2.22;;;;;;;;;;4981744;28;20027;-82
2022/09/18 05:41:30;;;;;;;4.88;2.05;;;;;;;;;;4980889;28;20022;-81
2022/09/18 05:43:55;;;;;;;6.15;2.35;;;;;;;;;;4980495;28;20027;-84
2022/09/18 05:46:21;;;;;;;4.28;1.98;;;;;;;;;;4980500;28;20038;-87
2022/09/18 05:48:49;;;;;;;4.70;2.10;;;;;;;;;;4981229;28;20097;-82
2022/09/18 05:51:15;;;;;;;6.88;2.10;;;;;;;;;;4981153;28;20035;-83
2022/09/18 05:53:41;;;;;;;5.35;2.30;;;;;;;;;;4979632;28;20082;-77
2022/09/18 05:56:07;;;;;;;5.97;2.20;;;;;;;;;;4979091;28;20038;-82
2022/09/18 05:58:33;;;;;;;4.22;2.20;;;;;;;;;;4976121;28;20031;-81
2022/09/18 06:01:00;;;;;;;5.38;2.38;;;;;;;;;;4978098;28;20449;-80
2022/09/18 06:03:25;;;;;;;3.83;2.15;;;;;;;;;;4984898;28;20061;-81
2022/09/18 06:05:52;;;;;;;5.57;2.10;;;;;;;;;;4983816;28;20027;-78
2022/09/18 06:08:18;;;;;;;6.72;2.22;;;;;;;;;;4984608;28;20076;-84
2022/09/18 06:10:44;;;;;;;3.90;1.95;;;;;;;;;;4984638;28;20214;-78
2022/09/18 06:13:14;;;;;;;9.50;2.40;;;;;;;;;;4984329;28;20033;-81
2022/09/18 06:15:44;;;;;;;5.25;2.20;;;;;;;;;;4980633;28;20022;-85
2022/09/18 06:18:10;;;;;;;4.00;2.08;;;;;;;;;;4978844;28;20038;-77
2022/09/18 06:20:35;;;;;;;5.50;2.42;;;;;;;;;;4984050;28;20023;-83
2022/09/18 06:23:01;;;;;;;5.20;2.53;;;;;;;;;;4976281;28;20042;-85
2022/09/18 06:25:28;;;;;;;5.22;2.58;;;;;;;;;;4985367;28;20321;-82
2022/09/18 06:27:57;;;;;;;6.10;2.50;;;;;;;;;;4985117;28;20607;-79
2022/09/18 06:30:27;;;;;;;5.97;2.42;;;;;;;;;;4984834;28;20046;-76
2022/09/18 06:32:53;;;;;;;5.07;2.70;;;;;;;;;;4978169;28;20112;-76
2022/09/18 06:35:19;;;;;;;7.68;2.67;;;;;;;;;;4984365;28;20035;-86
2022/09/18 06:37:44;;;;;;;6.97;2.83;;;;;;;;;;4984271;28;20229;-86
2022/09/18 06:40:09;;;;;;;6.80;2.90;;;;;;;;;;4984239;28;20050;-78
2022/09/18 06:42:35;;;;;;;7.25;2.90;;;;;;;;;;4983432;28;20019;-76
2022/09/18 06:45:00;;;;;;;8.13;2.55;;;;;;;;;;4983392;28;20503;-77
2022/09/18 06:47:25;;;;;;;7.35;2.65;;;;;;;;;;4984397;28;20026;-79
2022/09/18 06:49:51;;;;;;;4.80;2.42;;;;;;;;;;4982940;28;20030;-75
2022/09/18 06:52:16;;;;;;;6.75;2.60;;;;;;;;;;4983592;28;20089;-77
2022/09/18 06:54:41;;;;;;;7.47;2.70;;;;;;;;;;4984159;28;20334;-85
2022/09/18 06:57:07;;;;;;;5.43;2.22;;;;;;;;;;4976208;28;20062;-80
2022/09/18 06:59:32;;;;;;;7.20;2.40;;;;;;;;;;4980772;28;20034;-82
2022/09/18 07:01:57;;;;;;;6.32;2.50;;;;;;;;;;4980469;28;20058;-85
2022/09/18 07:04:23;;;;;;;6.43;2.40;;;;;;;;;;4984253;28;20045;-87
2022/09/18 07:06:48;;;;;;;6.80;2.33;;;;;;;;;;4984142;28;20113;-80
2022/09/18 07:09:14;;;;;;;6.28;2.47;;;;;;;;;;4982592;28;20462;-86
2022/09/18 07:11:39;;;;;;;4.45;2.25;;;;;;;;;;4974319;28;20034;-83
2022/09/18 07:14:09;;;;;;;5.80;2.42;;;;;;;;;;4976464;28;20031;-88
2022/09/18 07:16:35;;;;;;;5.80;2.47;;;;;;;;;;4980273;28;20054;-84
2022/09/18 07:19:00;;;;;;;6.28;2.03;;;;;;;;;;4975317;28;20038;-77
2022/09/18 07:21:26;;;;;;;6.97;2.30;;;;;;;;;;4979434;28;20267;-75
2022/09/18 07:23:51;;;;;;;4.90;2.45;;;;;;;;;;4983382;28;20094;-81
2022/09/18 07:26:18;;;;;;;5.28;2.33;;;;;;;;;;4982943;28;20026;-75
2022/09/18 07:28:43;;;;;;;5.75;2.20;;;;;;;;;;4979520;28;20029;-76
2022/09/18 07:31:09;;;;;;;6.20;2.33;;;;;;;;;;4978593;28;20038;-77
2022/09/18 07:33:34;;;;;;;4.60;2.20;;;;;;;;;;4983505;28;20023;-86
2022/09/18 07:36:01;;;;;;;6.85;2.45;;;;;;;;;;4983621;28;20114;-84
2022/09/18 07:38:27;;;;;;;5.45;2.30;;;;;;;;;;4971423;28;20285;-77
2022/09/18 07:40:53;;;;;;;4.70;2.20;;;;;;;;;;4982570;28;20218;-77
2022/09/18 07:43:18;;;;;;;5.53;2.20;;;;;;;;;;4983466;28;20038;-77
2022/09/18 07:45:44;;;;;;;11.32;2.50;;;;;;;;;;4982864;28;20023;-75
2022/09/18 07:48:09;;;;;;;4.93;2.30;;;;;;;;;;4982663;28;20087;-85
2022/09/18 07:50:35;;;;;;;6.75;2.20;;;;;;;;;;4981200;28;20097;-79
2022/09/18 07:53:02;;;;;;;4.53;1.80;;;;;;;;;;4971303;28;20257;-79
2022/09/18 07:55:28;;;;;;;3.67;1.73;;;;;;;;;;4969715;28;20029;-84
2022/09/18 07:57:58;;;;;;;5.18;1.85;;;;;;;;;;4979053;28;20054;-76
2022/09/18 08:00:28;;;;;;;5.70;1.80;;;;;;;;;;4967964;28;20026;-83
2022/09/18 08:03:02;;;;;;;6.13;1.83;;;;;;;;;;4969344;28;20035;-81
2022/09/18 08:05:27;;;;;;;11.38;2.28;;;;;;;;;;4969979;28;20030;-79
2022/09/18 08:07:52;;;;;;;6.47;1.85;;;;;;;;;;4974157;28;20035;-83
2022/09/18 08:10:18;;;;;;;6.55;1.83;;;;;;;;;;4982716;28;20039;-80
2022/09/18 08:12:43;;;;;;;4.10;2.10;;;;;;;;;;4983208;28;20249;-81
2022/09/18 08:15:09;;;;;;;4.13;1.65;;;;;;;;;;4983406;28;20293;-84
2022/09/18 08:17:34;;;;;;;5.28;1.65;;;;;;;;;;4981738;28;20421;-83
2022/09/18 08:20:00;;;;;;;3.10;1.50;;;;;;;;;;4982952;28;20031;-78
2022/09/18 08:22:25;;;;;;;4.32;1.50;;;;;;;;;;4978863;28;20026;-81
2022/09/18 08:24:51;;;;;;;3.65;1.55;;;;;;;;;;4974942;28;20026;-80
2022/09/18 08:27:16;;;;;;;3.53;1.63;;;;;;;;;;4981317;28;20026;-84
2022/09/18 08:29:42;;;;;;;6.72;1.90;;;;;;;;;;4983310;28;20127;-82
2022/09/18 08:32:07;;;;;;;6.47;1.60;;;;;;;;;;4982496;28;20038;-79
2022/09/18 08:34:33;;;;;;;4.68;1.70;;;;;;;;;;4982432;28;20195;-79
2022/09/18 08:36:58;;;;;;;6.07;1.60;;;;;;;;;;4982410;28;20046;-77
2022/09/18 08:39:24;;;;;;;4.50;1.60;;;;;;;;;;4981626;28;20035;-83
2022/09/18 08:42:11;;;;;;;5.53;1.70;;;;;;;;;;4982794;28;20073;-79
2022/09/18 08:44:47;;;;;;;6.30;1.67;;;;;;;;;;4978227;28;20027;-82
2022/09/18 08:47:20;;;;;;;3.55;1.50;;;;;;;;;;4982050;28;20305;-80
2022/09/18 08:49:57;;;;;;;4.40;1.50;;;;;;;;;;4979559;28;20053;-77
2022/09/18 08:52:27;;;;;;;4.88;1.58;;;;;;;;;;4981787;28;20025;-85
2022/09/18 08:55:11;;;;;;;3.40;1.50;;;;;;;;;;4981998;28;20026;-82
2022/09/18 08:57:41;;;;;;;4.63;1.50;;;;;;;;;;4979605;28;20039;-81
2022/09/18 09:00:18;;;;;;;2.65;1.20;;;;;;;;;;4981885;28;20023;-85
2022/09/18 09:02:47;;;;;;;6.32;1.50;;;;;;;;;;4977290;28;20062;-78
2022/09/18 09:05:31;;;;;;;6.00;1.38;;;;;;;;;;4971791;28;20022;-78
2022/09/18 09:08:18;;;;;;;5.03;1.33;;;;;;;;;;4964308;28;20058;-78
2022/09/18 09:10:58;;;;;;;5.15;1.40;;;;;;;;;;4973034;28;20330;-81
2022/09/18 09:13:46;;;;;;;4.15;1.27;;;;;;;;;;4969423;28;20043;-81
2022/09/18 09:16:22;;;;;;;3.75;1.27;;;;;;;;;;4968867;28;20113;-78
2022/09/18 09:19:06;;;;;;;3.80;1.33;;;;;;;;;;4964661;28;20435;-76
2022/09/18 09:21:59;;;;;;;3.72;1.20;;;;;;;;;;4966737;28;20062;-85
2022/09/18 09:24:37;;;;;;;2.83;1.15;;;;;;;;;;4968797;28;20041;-82
2022/09/18 09:27:21;;;;;;;5.78;1.40;;;;;;;;;;4980442;28;20333;-84
2022/09/18 09:29:49;;;;;;;4.07;1.30;;;;;;;;;;4975799;28;20042;-81
2022/09/18 09:32:17;;;;;;;4.43;1.35;;;;;;;;;;4980577;28;20081;-85
2022/09/18 09:34:49;;;;;;;2.92;1.00;;;;;;;;;;4977123;28;20034;-82
2022/09/18 09:37:19;;;;;;;5.60;1.20;;;;;;;;;;4969867;28;20045;-78
2022/09/18 09:39:53;;;;;;;4.72;1.30;;;;;;;;;;4970394;28;20113;-88
2022/09/18 09:42:30;;;;;;;3.30;1.10;;;;;;;;;;4964357;28;20034;-86
2022/09/18 09:45:10;;;;;;;4.43;1.00;;;;;;;;;;4960973;28;20035;-81
2022/09/18 09:48:02;;;;;;;2.88;1.20;;;;;;;;;;4956775;28;20035;-82
2022/09/18 09:50:55;;;;;;;2.58;1.20;;;;;;;;;;4953056;28;20077;-81
2022/09/18 09:53:23;;;;;;;3.90;1.10;;;;;;;;;;4971533;28;20468;-82
2022/09/18 09:56:13;;;;;;;4.25;1.20;;;;;;;;;;4950309;28;20034;-81
2022/09/18 09:58:58;;;;;;;2.30;1.10;;;;;;;;;;4952587;28;20031;-85
2022/09/18 10:01:26;;;;;;;1.73;1.00;;;;;;;;;;4945510;28;20125;-86
2022/09/18 10:03:55;;;;;;;4.72;1.27;;;;;;;;;;4939176;28;20185;-82
2022/09/18 10:06:45;;;;;;;4.55;1.40;;;;;;;;;;4952475;28;20101;-81
2022/09/18 10:09:29;;;;;;;4.35;1.60;;;;;;;;;;4950997;28;20041;-89
2022/09/18 10:12:05;;;;;;;5.13;1.50;;;;;;;;;;4941509;28;20042;-84
2022/09/18 10:14:34;;;;;;;4.13;1.30;;;;;;;;;;4946038;28;20130;-81
2022/09/18 10:17:01;;;;;;;4.88;1.27;;;;;;;;;;4953234;28;20035;-79
2022/09/18 10:19:34;;;;;;;3.33;1.17;;;;;;;;;;4958123;28;20086;-79
2022/09/18 10:22:04;;;;;;;4.97;1.27;;;;;;;;;;4962334;28;20034;-83
2022/09/18 10:24:37;;;;;;;3.55;1.30;;;;;;;;;;4959492;28;20034;-88
2022/09/18 10:27:11;;;;;;;3.05;1.17;;;;;;;;;;4962272;28;20419;-88
2022/09/18 10:29:37;;;;;;;3.17;1.33;;;;;;;;;;4962228;28;20042;-89
2022/09/18 10:32:03;;;;;;;4.03;1.30;;;;;;;;;;4963435;28;20133;-81
2022/09/18 10:34:50;;;;;;;5.45;1.45;;;;;;;;;;4965436;28;20046;-84
2022/09/18 10:37:16;;;;;;;2.72;1.20;;;;;;;;;;4961998;28;20030;-81
2022/09/18 10:39:50;;;;;;;4.38;1.30;;;;;;;;;;4962878;28;20019;-80
2022/09/18 10:42:20;;;;;;;4.07;1.20;;;;;;;;;;4965539;28;20022;-83
2022/09/18 10:44:57;;;;;;;4.10;1.17;;;;;;;;;;4967735;28;20057;-83
2022/09/18 10:47:29;;;;;;;4.20;1.25;;;;;;;;;;4965011;28;20030;-81
2022/09/18 10:50:00;;;;;;;4.40;1.08;;;;;;;;;;4971662;28;20035;-86
2022/09/18 10:52:35;;;;;;;4.38;1.13;;;;;;;;;;4971172;28;20030;-90
2022/09/18 10:55:04;;;;;;;5.70;1.38;;;;;;;;;;4968148;28;20030;-82
2022/09/18 10:57:32;;;;;;;3.65;1.10;;;;;;;;;;4970837;28;20431;-79
2022/09/18 10:59:58;;;;;;;3.88;1.20;;;;;;;;;;4972445;28;20076;-76
2022/09/18 11:02:27;;;;;;;2.50;1.10;;;;;;;;;;4974916;28;20054;-83
2022/09/18 11:04:53;;;;;;;3.33;1.25;;;;;;;;;;4976336;28;20167;-82
2022/09/18 11:07:24;;;;;;;4.55;1.60;;;;;;;;;;4976667;28;20389;-77
2022/09/18 11:09:50;;;;;;;5.00;1.30;;;;;;;;;;4977006;28;20054;-79
2022/09/18 11:12:20;;;;;;;1.65;1.02;;;;;;;;;;4977042;28;20066;-79
2022/09/18 11:14:52;;;;;;;3.35;1.13;;;;;;;;;;4963542;28;20038;-78
2022/09/18 11:17:33;;;;;;;3.22;1.10;;;;;;;;;;4976424;28;20073;-78
2022/09/18 11:20:01;;;;;;;5.93;1.10;;;;;;;;;;4976658;28;20034;-80
2022/09/18 11:22:43;;;;;;;2.90;1.05;;;;;;;;;;4977124;28;20027;-78
2022/09/18 11:25:18;;;;;;;2.38;1.10;;;;;;;;;;4977027;28;20026;-84
2022/09/18 11:27:54;;;;;;;5.05;1.38;;;;;;;;;;4976838;28;20225;-81
2022/09/18 11:30:29;;;;;;;3.35;1.25;;;;;;;;;;4974395;28;20042;-79
2022/09/18 11:33:14;;;;;;;5.28;1.38;;;;;;;;;;4974291;28;20039;-79
2022/09/18 11:35:50;;;;;;;5.85;1.30;;;;;;;;;;4954319;28;20046;-79
2022/09/18 11:38:18;;;;;;;3.47;1.33;;;;;;;;;;4981406;28;20101;-80
2022/09/18 11:40:49;;;;;;;4.72;1.20;;;;;;;;;;4979415;28;20023;-82
2022/09/18 11:43:19;;;;;;;4.32;1.27;;;;;;;;;;4983651;28;20073;-88
2022/09/18 11:45:48;;;;;;;2.65;1.17;;;;;;;;;;4983788;28;20031;-79
2022/09/18 11:48:22;;;;;;;5.03;1.30;;;;;;;;;;4983943;28;20378;-78
2022/09/18 11:50:53;;;;;;;3.05;1.40;;;;;;;;;;4983280;28;20069;-81
2022/09/18 11:53:41;;;;;;;4.57;1.27;;;;;;;;;;4983923;28;20030;-84
2022/09/18 11:56:16;;;;;;;3.20;1.05;;;;;;;;;;4983331;28;20035;-86
2022/09/18 11:58:44;;;;;;;4.32;0.95;;;;;;;;;;4983418;28;20037;-82
2022/09/18 12:01:34;;;;;;;5.60;1.30;;;;;;;;;;4982774;28;20034;-83
2022/09/18 12:04:09;;;;;;;3.20;1.30;;;;;;;;;;4980857;28;20035;-80
2022/09/18 12:06:47;;;;;;;2.33;1.10;;;;;;;;;;4981354;28;20065;-79
2022/09/18 12:09:31;;;;;;;5.25;1.40;;;;;;;;;;4982717;28;20026;-78
2022/09/18 12:12:12;;;;;;;5.75;1.35;;;;;;;;;;4983424;28;20029;-83
2022/09/18 12:14:50;;;;;;;3.85;1.10;;;;;;;;;;4983456;28;20086;-80
2022/09/18 12:17:36;;;;;;;5.93;1.35;;;;;;;;;;4977552;28;20047;-78
2022/09/18 12:20:08;;;;;;;3.53;1.13;;;;;;;;;;4979422;28;20044;-80
2022/09/18 12:22:39;;;;;;;3.00;1.20;;;;;;;;;;4982837;28;20085;-80
2022/09/18 12:25:13;;;;;;;4.47;1.40;;;;;;;;;;4982800;28;20050;-78
2022/09/18 12:27:51;;;;;;;3.00;1.30;;;;;;;;;;4982324;28;20086;-82
2022/09/18 12:30:19;;;;;;;4.15;1.30;;;;;;;;;;4982047;28;20038;-78
2022/09/18 12:32:58;;;;;;;2.85;1.30;;;;;;;;;;4981934;28;20027;-79
2022/09/18 12:35:52;;;;;;;2.50;1.00;;;;;;;;;;4967545;28;20064;-78
2022/09/18 12:38:52;;;;;;;2.10;1.00;;;;;;;;;;4971660;28;20326;-80
2022/09/18 12:41:20;;;;;;;3.63;1.30;;;;;;;;;;4970544;28;20031;-77
2022/09/18 12:44:01;;;;;;;2.83;1.17;;;;;;;;;;4977614;28;20278;-77
2022/09/18 12:46:52;;;;;;;4.88;1.10;;;;;;;;;;4967093;28;20030;-79
2022/09/18 12:49:26;;;;;;;2.28;1.10;;;;;;;;;;4990818;28;20049;-80
2022/09/18 12:52:21;;;;;;;3.72;1.50;;;;;;;;;;4984861;28;20027;-79
2022/09/18 12:55:08;;;;;;;4.30;1.27;;;;;;;;;;4969351;28;20027;-78
2022/09/18 12:57:59;;;;;;;3.38;1.08;;;;;;;;;;4975759;28;20023;-81
2022/09/18 13:00:27;;;;;;;3.47;1.20;;;;;;;;;;4975941;28;20114;-78
2022/09/18 13:03:11;;;;;;;4.95;1.23;;;;;;;;;;4978027;28;20093;-79
2022/09/18 13:05:43;;;;;;;3.57;1.50;;;;;;;;;;4962583;28;20023;-80
2022/09/18 13:08:24;;;;;;;2.67;1.02;;;;;;;;;;4958021;28;20058;-79
2022/09/18 13:10:53;;;;;;;2.08;1.10;;;;;;;;;;4962564;28;20042;-79
2022/09/18 13:13:41;;;;;;;2.60;1.10;;;;;;;;;;4958630;28;20026;-82
2022/09/18 13:16:16;;;;;;;3.45;1.33;;;;;;;;;;4957130;28;20038;-83
2022/09/18 13:18:45;;;;;;;2.38;1.02;;;;;;;;;;4964411;28;20073;-80
2022/09/18 13:21:36;;;;;;;3.72;1.30;;;;;;;;;;4966642;28;20023;-85
2022/09/18 13:24:04;;;;;;;8.00;1.23;;;;;;;;;;4961036;28;20498;-82
2022/09/18 13:26:35;;;;;;;1.90;1.10;;;;;;;;;;4962764;28;20063;-83
2022/09/18 13:29:00;;;;;;;3.00;1.20;;;;;;;;;;4960637;28;20712;-79
2022/09/18 13:31:33;;;;;;;4.18;1.40;;;;;;;;;;4965972;28;20022;-78
2022/09/18 13:34:05;;;;;;;3.08;1.48;;;;;;;;;;4962694;28;20034;-83
2022/09/18 13:36:38;;;;;;;2.25;1.08;;;;;;;;;;4964872;28;20080;-78
2022/09/18 13:39:25;;;;;;;3.65;1.20;;;;;;;;;;4969523;28;20031;-77
2022/09/18 13:41:54;;;;;;;2.33;1.00;;;;;;;;;;4963425;28;20776;-79
2022/09/18 13:44:26;;;;;;;4.13;1.20;;;;;;;;;;4960874;28;20034;-77
2022/09/18 13:47:07;;;;;;;2.53;1.30;;;;;;;;;;4960888;28;20027;-81
2022/09/18 13:49:50;;;;;;;6.10;1.30;;;;;;;;;;4976350;28;20077;-83
2022/09/18 13:52:40;;;;;;;3.05;1.30;;;;;;;;;;4961087;28;20035;-78
2022/09/18 13:55:12;;;;;;;5.18;1.30;;;;;;;;;;4955920;28;20035;-78
2022/09/18 13:57:42;;;;;;;5.82;1.30;;;;;;;;;;4977374;28;20027;-79
2022/09/18 14:00:19;;;;;;;2.80;1.23;;;;;;;;;;4979655;28;20323;-77
2022/09/18 14:03:08;;;;;;;3.08;1.27;;;;;;;;;;4980360;28;20034;-80
2022/09/18 14:05:37;;;;;;;5.60;1.40;;;;;;;;;;4980895;28;20038;-80
2022/09/18 14:08:13;;;;;;;2.17;1.10;;;;;;;;;;4979577;28;20031;-81
2022/09/18 14:10:43;;;;;;;4.68;1.25;;;;;;;;;;4981190;28;20089;-79
2022/09/18 14:13:17;;;;;;;2.97;1.20;;;;;;;;;;4980919;28;20031;-78
2022/09/18 14:16:17;;;;;;;3.47;1.30;;;;;;;;;;4975134;28;20034;-79
2022/09/18 14:18:42;;;;;;;3.97;1.23;;;;;;;;;;4994332;28;20023;-81
2022/09/18 14:21:17;;;;;;;2.95;1.23;;;;;;;;;;4980803;28;20086;-81
2022/09/18 14:23:45;;;;;;;6.28;1.33;;;;;;;;;;4978949;28;20231;-80
2022/09/18 14:26:36;;;;;;;4.15;1.20;;;;;;;;;;4983904;28;20090;-78
2022/09/18 14:29:09;;;;;;;2.70;1.20;;;;;;;;;;4982381;28;20318;-79
2022/09/18 14:31:47;;;;;;;3.42;1.20;;;;;;;;;;4984382;28;20031;-79
2022/09/18 14:34:31;;;;;;;3.15;1.30;;;;;;;;;;4983393;28;20069;-79
2022/09/18 14:37:00;;;;;;;2.83;1.20;;;;;;;;;;4978750;28;20333;-79
2022/09/18 14:39:30;;;;;;;2.95;1.20;;;;;;;;;;4973419;28;20026;-79
2022/09/18 14:42:01;;;;;;;3.42;1.42;;;;;;;;;;4976083;28;20027;-80
2022/09/18 14:44:28;;;;;;;5.60;1.30;;;;;;;;;;4979806;28;20026;-80
2022/09/18 14:46:56;;;;;;;2.90;1.20;;;;;;;;;;4976593;28;20022;-80
2022/09/18 14:49:40;;;;;;;3.70;1.30;;;;;;;;;;4981776;28;20023;-80
2022/09/18 14:52:19;;;;;;;5.22;1.40;;;;;;;;;;4979863;28;20045;-79
2022/09/18 14:54:46;;;;;;;2.92;1.50;;;;;;;;;;4980043;28;20038;-80
2022/09/18 14:57:15;;;;;;;8.88;4.57;;;;;;;;;;4984613;28;20018;-81
2022/09/18 14:59:40;;;;;;;6.38;3.47;;;;;;;;;;4984294;28;20042;-79
2022/09/18 15:02:33;;;;;;;2.83;1.60;;;;;;;;;;4977681;28;20130;-80
2022/09/18 15:05:01;;;;;;;2.75;1.50;;;;;;;;;;4977221;28;20070;-81
2022/09/18 15:07:27;;;;;;;2.95;1.50;;;;;;;;;;4977349;28;20054;-80
2022/09/18 15:09:55;;;;;;;2.35;1.27;;;;;;;;;;4977951;28;20069;-79
2022/09/18 15:12:23;;;;;;;6.03;1.50;;;;;;;;;;4982736;28;20334;-80